Maple, North Carolina
Current Conditions -  °F | °C
As of 12:55 PM on Friday 31 Oct 2014 (Local Time) from KONX Reporting Station
Haze Haze  
Wind Chill: 62°   Ceiling: Unl
Heat Index: 62°   Visibility: 3mi
Dew Point: 48°   Wind: 14mph
Humidity: 61%   Direction: 10°N
Pressure: 29.86"   Gusts: 20mph
Location:  36.41°N, 76°W
Report Text: KONX 311655Z AUTO 01012G17KT 3SM HZ SCT034 SCT042 SCT065 16/09 A2986 RMK AO2 T01640088
Loading
Personal Weather Stations






























Interactive Weather Map
Tropical Storm Tracking
New forecast layout! Learn more

10-Day Weather Forecast

Advertisements
Track Severe Weather on mobile